Time;durP1;ratioP1;P1;durP2;ratioP2;P2;SDS_P1;SDS_P2;PMS_P1;PMS_P2;Temp;Humidity;BMP_temperature;BMP_pressure;BME280_temperature;BME280_humidity;BME280_pressure;Samples;Min_cycle;Max_cycle;Signal;HPM_P1;HPM_P2
2022/12/13 00:01:57;;;;;;;49.78;24.95;;;;;;;-3.73;100.00;101350.47;5038551;28;20413;-80
2022/12/13 00:04:25;;;;;;;51.55;26.73;;;;;;;-3.74;100.00;101348.69;5055479;28;20532;-80
2022/12/13 00:06:55;;;;;;;53.90;27.25;;;;;;;-3.78;100.00;101347.59;5057576;28;20051;-80
2022/12/13 00:09:23;;;;;;;53.45;25.33;;;;;;;-3.82;100.00;101355.91;5053855;28;20064;-80
2022/12/13 00:11:52;;;;;;;51.97;26.58;;;;;;;-3.82;100.00;101349.84;5011791;28;20831;-81
2022/12/13 00:14:22;;;;;;;50.65;25.75;;;;;;;-3.84;100.00;101361.72;5064160;28;20044;-81
2022/12/13 00:16:51;;;;;;;49.30;25.00;;;;;;;-3.84;100.00;101348.84;5026301;28;20045;-80
2022/12/13 00:19:18;;;;;;;51.97;25.25;;;;;;;-3.90;100.00;101351.88;5044806;28;20049;-81
2022/12/13 00:21:46;;;;;;;50.88;24.15;;;;;;;-3.92;100.00;101345.75;5047498;28;20041;-80
2022/12/13 00:24:13;;;;;;;52.55;24.77;;;;;;;-3.94;100.00;101350.78;5056425;28;20056;-79
2022/12/13 00:26:41;;;;;;;52.28;24.92;;;;;;;-3.97;100.00;101349.66;5037193;28;20064;-80
2022/12/13 00:29:10;;;;;;;47.80;24.15;;;;;;;-3.98;100.00;101355.63;5082479;28;20352;-80
2022/12/13 00:31:38;;;;;;;48.28;24.80;;;;;;;-3.99;100.00;101352.16;5037163;28;20052;-79
2022/12/13 00:34:25;;;;;;;46.28;24.65;;;;;;;-4.01;100.00;101345.97;5060048;28;20059;-80
2022/12/13 00:36:54;;;;;;;43.40;24.30;;;;;;;-4.02;100.00;101351.94;5050559;28;20712;-79
2022/12/13 00:39:21;;;;;;;48.13;24.67;;;;;;;-4.03;100.00;101346.66;5036199;28;20408;-80
2022/12/13 00:41:49;;;;;;;49.58;24.95;;;;;;;-4.05;100.00;101358.53;5024638;28;20120;-80
2022/12/13 00:44:18;;;;;;;48.38;25.33;;;;;;;-4.08;100.00;101355.75;5042040;28;20044;-80
2022/12/13 00:46:46;;;;;;;45.63;23.35;;;;;;;-4.11;100.00;101359.00;5020384;28;20442;-80
2022/12/13 00:49:13;;;;;;;48.40;24.10;;;;;;;-4.14;100.00;101351.06;5042704;28;20048;-81
2022/12/13 00:51:40;;;;;;;44.25;22.33;;;;;;;-4.17;100.00;101358.59;5072308;28;20505;-80
2022/12/13 00:54:09;;;;;;;47.38;23.25;;;;;;;-4.20;100.00;101358.34;5056284;28;20040;-80
2022/12/13 00:56:37;;;;;;;45.50;23.10;;;;;;;-4.25;100.00;101337.47;5021883;28;20052;-80
2022/12/13 00:59:04;;;;;;;45.85;23.45;;;;;;;-4.26;100.00;101339.91;5063576;28;20049;-80
2022/12/13 01:01:35;;;;;;;49.88;22.98;;;;;;;-4.27;100.00;101320.09;5056413;28;20059;-80
2022/12/13 01:04:05;;;;;;;50.17;24.85;;;;;;;-4.25;100.00;101323.69;5045460;28;20059;-81
2022/12/13 01:06:45;;;;;;;42.10;19.07;;;;;;;-4.25;100.00;101315.94;5043569;28;20048;-79
2022/12/13 01:09:29;;;;;;;47.63;23.40;;;;;;;-4.23;100.00;101306.69;5062495;28;20791;-79
2022/12/13 01:11:59;;;;;;;52.17;24.58;;;;;;;-4.24;100.00;101307.47;5043052;28;20047;-81
2022/12/13 01:14:27;;;;;;;50.00;25.35;;;;;;;-4.25;100.00;101310.81;5057719;28;20048;-80
2022/12/13 01:16:56;;;;;;;47.17;24.58;;;;;;;-4.27;100.00;101310.72;5041957;28;20059;-80
2022/12/13 01:19:26;;;;;;;46.83;24.65;;;;;;;-4.25;100.00;101314.31;5019159;28;20045;-80
2022/12/13 01:22:02;;;;;;;50.30;25.98;;;;;;;-4.25;100.00;101305.66;5029356;28;20103;-79
2022/12/13 01:24:30;;;;;;;48.15;24.83;;;;;;;-4.25;100.00;101310.81;5070042;28;20497;-80
2022/12/13 01:26:58;;;;;;;51.90;26.08;;;;;;;-4.24;100.00;101310.03;5059285;28;20052;-79
2022/12/13 01:29:26;;;;;;;54.97;24.73;;;;;;;-4.24;100.00;101310.03;5041789;28;20041;-80
2022/12/13 01:31:56;;;;;;;54.05;24.75;;;;;;;-4.24;100.00;101316.06;5039645;28;20049;-80
2022/12/13 01:34:24;;;;;;;49.97;25.02;;;;;;;-4.22;100.00;101321.31;5058985;28;20048;-80
2022/12/13 01:36:54;;;;;;;51.78;25.60;;;;;;;-4.20;100.00;101324.91;5060100;28;20041;-80
2022/12/13 01:39:26;;;;;;;50.38;26.20;;;;;;;-4.21;100.00;101324.00;5044061;28;21027;-80
2022/12/13 01:41:58;;;;;;;62.25;27.55;;;;;;;-4.22;100.00;101316.19;5056328;28;20044;-80
2022/12/13 01:44:51;;;;;;;56.42;26.85;;;;;;;-4.21;100.00;101312.84;5033464;28;20048;-80
2022/12/13 01:47:29;;;;;;;51.67;25.58;;;;;;;-4.21;100.00;101312.84;5061146;28;20052;-80
2022/12/13 01:50:02;;;;;;;53.42;27.15;;;;;;;-4.21;100.00;101315.41;5044988;28;20077;-79
2022/12/13 01:52:32;;;;;;;46.17;24.52;;;;;;;-4.21;100.00;101313.72;5065336;28;20060;-80
2022/12/13 01:55:03;;;;;;;48.80;24.60;;;;;;;-4.22;100.00;101317.06;5055988;28;20638;-80
2022/12/13 01:57:32;;;;;;;57.35;26.45;;;;;;;-4.23;100.00;101309.25;5067305;28;20043;-80
2022/12/13 02:00:00;;;;;;;53.85;26.63;;;;;;;-4.22;100.00;101308.47;5036615;28;20052;-80
2022/12/13 02:02:33;;;;;;;49.72;26.13;;;;;;;-4.23;100.00;101311.84;5050130;28;20049;-79
2022/12/13 02:05:38;;;;;;;62.78;26.77;;;;;;;-4.22;100.00;101316.19;5038017;28;20845;-80
2022/12/13 02:08:09;;;;;;;53.70;25.50;;;;;;;-4.23;100.00;101309.25;5054738;28;20051;-79
2022/12/13 02:10:36;;;;;;;50.33;24.42;;;;;;;-4.24;100.00;101316.06;5065031;28;20059;-79
2022/12/13 02:13:04;;;;;;;54.03;26.15;;;;;;;-4.25;100.00;101319.44;5048493;28;20052;-80
2022/12/13 02:16:04;;;;;;;55.10;27.02;;;;;;;-4.25;100.00;101319.44;5023617;28;20063;-80
2022/12/13 02:18:54;;;;;;;56.25;26.58;;;;;;;-4.27;100.00;101328.75;5046940;28;20045;-79
2022/12/13 02:21:46;;;;;;;49.22;24.20;;;;;;;-4.29;100.00;101330.31;5035276;28;20065;-81
2022/12/13 02:24:30;;;;;;;53.13;25.52;;;;;;;-4.30;100.00;101325.94;5052193;28;20053;-80
2022/12/13 02:27:15;;;;;;;52.65;25.73;;;;;;;-4.29;100.00;101325.16;5052132;28;20048;-80
2022/12/13 02:30:21;;;;;;;48.90;25.40;;;;;;;-4.32;100.00;101315.53;5014358;28;20053;-80
2022/12/13 02:33:07;;;;;;;51.50;25.73;;;;;;;-4.31;100.00;101322.47;5065502;28;20044;-80
2022/12/13 02:35:50;;;;;;;58.67;26.77;;;;;;;-4.31;100.00;101319.00;5039374;28;20056;-80
2022/12/13 02:38:52;;;;;;;52.28;25.45;;;;;;;-4.32;100.00;101319.78;5045173;28;20021;-81
2022/12/13 02:41:45;;;;;;;43.08;23.35;;;;;;;-4.33;100.00;101312.84;5047803;28;20100;-80
2022/12/13 02:44:39;;;;;;;44.10;23.45;;;;;;;-4.33;100.00;101308.63;5030494;28;20048;-79
2022/12/13 02:47:14;;;;;;;50.53;24.13;;;;;;;-4.35;100.00;101305.03;5051591;28;20375;-79
2022/12/13 02:49:53;;;;;;;47.95;24.88;;;;;;;-4.36;100.00;101295.53;5039516;28;20050;-79
2022/12/13 02:52:25;;;;;;;53.25;23.58;;;;;;;-4.39;100.00;101300.44;5051136;28;20045;-79
2022/12/13 02:54:55;;;;;;;48.20;23.98;;;;;;;-4.40;100.00;101293.53;5037830;28;20045;-79
2022/12/13 02:57:44;;;;;;;50.55;24.67;;;;;;;-4.40;100.00;101298.66;5074630;28;20040;-78
2022/12/13 03:00:15;;;;;;;49.70;24.63;;;;;;;-4.37;100.00;101290.25;5000161;28;20036;-80
2022/12/13 03:03:18;;;;;;;44.37;24.07;;;;;;;-4.39;100.00;101279.84;5044923;28;20045;-78
2022/12/13 03:06:29;;;;;;;42.92;22.45;;;;;;;-4.39;100.00;101274.72;5040865;28;20103;-80
2022/12/13 03:09:31;;;;;;;51.30;25.35;;;;;;;-4.41;100.00;101278.88;5043741;28;20049;-80
2022/12/13 03:15:13;;;;;;;46.75;23.08;;;;;;;-4.43;100.00;101276.97;5052520;28;20060;-79
2022/12/13 03:17:51;;;;;;;40.83;23.58;;;;;;;-4.45;100.00;101287.16;5029609;28;20044;-79
2022/12/13 03:20:24;;;;;;;53.92;24.70;;;;;;;-4.47;100.00;101283.59;5035534;28;20052;-80
2022/12/13 03:22:53;;;;;;;50.38;23.88;;;;;;;-4.49;100.00;101284.28;5051935;28;20052;-79
2022/12/13 03:25:23;;;;;;;45.47;23.90;;;;;;;-4.48;100.00;101280.91;5052384;28;20037;-79
2022/12/13 03:28:00;;;;;;;52.97;24.85;;;;;;;-4.49;100.00;101281.69;5037642;28;20045;-78
2022/12/13 03:30:31;;;;;;;46.38;25.27;;;;;;;-4.49;100.00;101280.00;5028201;28;20045;-80
2022/12/13 03:32:59;;;;;;;52.80;24.85;;;;;;;-4.50;100.00;101278.22;5022019;28;20055;-79
2022/12/13 03:35:27;;;;;;;50.97;24.33;;;;;;;-4.51;100.00;101279.00;5029645;28;20049;-80
2022/12/13 03:38:11;;;;;;;52.05;25.00;;;;;;;-4.52;100.00;101272.97;5043081;28;20765;-80
2022/12/13 03:40:57;;;;;;;48.75;24.17;;;;;;;-4.52;100.00;101274.63;5057671;28;20051;-80
2022/12/13 03:43:27;;;;;;;50.75;24.17;;;;;;;-4.53;100.00;101272.88;5028809;28;20064;-80
2022/12/13 03:45:54;;;;;;;43.97;23.15;;;;;;;-4.55;100.00;101277.91;5063999;28;20045;-80
2022/12/13 03:48:23;;;;;;;52.00;23.88;;;;;;;-4.56;100.00;101280.34;5033349;28;20049;-79
2022/12/13 03:50:52;;;;;;;48.00;24.45;;;;;;;-4.57;100.00;101263.16;5038280;28;20284;-79
2022/12/13 03:53:22;;;;;;;47.42;24.58;;;;;;;-4.59;100.00;101275.91;5023496;28;20053;-79
2022/12/13 03:56:03;;;;;;;50.85;25.33;;;;;;;-4.59;100.00;101272.44;5047830;28;20033;-78
2022/12/13 03:58:32;;;;;;;38.40;19.48;;;;;;;-4.59;100.00;101269.88;5048021;28;20041;-79
2022/12/13 04:01:13;;;;;;;51.60;24.45;;;;;;;-4.60;100.00;101271.53;5037895;28;20048;-80
2022/12/13 04:03:44;;;;;;;54.63;26.08;;;;;;;-4.58;100.00;101277.66;5021259;28;20466;-79
2022/12/13 04:06:12;;;;;;;54.35;25.73;;;;;;;-4.59;100.00;101277.59;5034696;28;20051;-80
2022/12/13 04:08:50;;;;;;;53.75;25.92;;;;;;;-4.59;100.00;101268.19;5029012;28;20049;-80
2022/12/13 04:14:10;;;;;;;51.40;24.23;;;;;;;-4.58;100.00;101269.06;5050865;28;20414;-80
2022/12/13 04:16:38;;;;;;;52.42;25.88;;;;;;;-4.59;100.00;101269.88;5044242;28;20052;-80
2022/12/13 04:19:06;;;;;;;51.25;24.52;;;;;;;-4.61;100.00;101266.28;5017335;28;20040;-80
2022/12/13 04:21:33;;;;;;;47.38;23.92;;;;;;;-4.63;100.00;101267.84;5021058;28;20057;-80
2022/12/13 04:24:01;;;;;;;46.10;24.58;;;;;;;-4.67;100.00;101278.69;5029619;28;20045;-80
2022/12/13 04:26:28;;;;;;;52.45;24.75;;;;;;;-4.68;100.00;101272.69;5039197;28;20045;-80
2022/12/13 04:28:55;;;;;;;45.72;24.17;;;;;;;-4.68;100.00;101280.38;5047065;28;20053;-79
2022/12/13 04:31:23;;;;;;;56.28;25.75;;;;;;;-4.70;100.00;101272.56;5042281;28;20053;-78
2022/12/13 04:33:50;;;;;;;43.92;23.75;;;;;;;-4.71;100.00;101272.44;4997976;28;20049;-79
2022/12/13 04:36:18;;;;;;;48.90;23.25;;;;;;;-4.72;100.00;101268.09;5054565;28;20060;-79
2022/12/13 04:39:04;;;;;;;50.00;24.08;;;;;;;-4.74;100.00;101265.41;5030853;28;20052;-80
2022/12/13 04:41:52;;;;;;;47.60;24.20;;;;;;;-4.74;100.00;101260.28;5040087;28;20049;-79
2022/12/13 04:44:20;;;;;;;51.28;24.33;;;;;;;-4.74;100.00;101254.25;5023084;28;20049;-80
2022/12/13 04:46:56;;;;;;;48.00;24.10;;;;;;;-4.76;100.00;101249.00;5041179;28;20056;-80
2022/12/13 04:49:29;;;;;;;50.53;23.05;;;;;;;-4.78;100.00;101241.94;5021301;28;20064;-80
2022/12/13 04:51:56;;;;;;;47.55;22.85;;;;;;;-4.80;100.00;101252.13;5033054;28;20046;-79
2022/12/13 04:54:31;;;;;;;38.50;21.13;;;;;;;-4.81;100.00;101250.34;5016544;28;20053;-79
2022/12/13 04:57:10;;;;;;;46.15;22.77;;;;;;;-4.80;100.00;101251.22;5036502;28;20698;-79
2022/12/13 04:59:39;;;;;;;57.15;28.90;;;;;;;-4.81;100.00;101255.47;5044051;28;20060;-79
2022/12/13 05:02:07;;;;;;;44.75;23.67;;;;;;;-4.82;100.00;101258.84;5005377;28;20060;-79
2022/12/13 05:04:34;;;;;;;45.65;23.70;;;;;;;-4.83;100.00;101256.16;5021360;28;20046;-80
2022/12/13 05:07:02;;;;;;;46.13;23.13;;;;;;;-4.85;100.00;101250.03;5016568;28;20036;-79
2022/12/13 05:09:30;;;;;;;43.97;23.17;;;;;;;-4.84;100.00;101244.97;5040146;28;20041;-79
2022/12/13 05:11:57;;;;;;;49.10;22.13;;;;;;;-4.85;100.00;101248.34;5028507;28;20049;-79
2022/12/13 05:14:31;;;;;;;43.15;21.80;;;;;;;-4.86;100.00;101241.38;5035633;28;20052;-80
2022/12/13 05:17:00;;;;;;;44.20;22.15;;;;;;;-4.86;100.00;101245.66;5053238;28;20060;-80
2022/12/13 05:19:28;;;;;;;44.58;23.50;;;;;;;-4.88;100.00;101247.22;5017751;28;20048;-80
2022/12/13 05:21:59;;;;;;;41.65;22.27;;;;;;;-4.89;100.00;101243.75;5009664;28;20041;-80
2022/12/13 05:24:30;;;;;;;45.58;21.42;;;;;;;-4.90;100.00;101244.53;5038893;28;20053;-79
2022/12/13 05:26:58;;;;;;;40.90;22.05;;;;;;;-4.93;100.00;101250.34;5014537;28;20056;-79
2022/12/13 05:29:26;;;;;;;41.75;21.65;;;;;;;-4.93;100.00;101237.50;5022414;28;20041;-80
2022/12/13 05:31:55;;;;;;;50.53;24.08;;;;;;;-4.93;100.00;101244.34;5042966;28;20461;-80
2022/12/13 05:34:22;;;;;;;42.50;21.35;;;;;;;-4.94;100.00;101238.28;5007946;28;20053;-79
2022/12/13 05:36:50;;;;;;;40.28;21.67;;;;;;;-4.93;100.00;101234.06;5028487;28;20061;-79
2022/12/13 05:39:17;;;;;;;44.78;23.42;;;;;;;-4.93;100.00;101234.06;5037039;28;20064;-79
2022/12/13 05:41:57;;;;;;;44.22;22.05;;;;;;;-4.93;100.00;101228.91;5018697;28;20041;-79
2022/12/13 05:44:30;;;;;;;40.45;21.63;;;;;;;-4.93;100.00;101226.34;5017711;28;20065;-79
2022/12/13 05:46:58;;;;;;;46.58;22.85;;;;;;;-4.93;100.00;101221.19;5053095;28;20815;-78
2022/12/13 05:49:30;;;;;;;48.42;22.88;;;;;;;-4.94;100.00;101220.28;4983293;28;20405;-78
2022/12/13 05:51:57;;;;;;;50.70;22.85;;;;;;;-4.94;100.00;101217.72;5010521;28;20061;-80
2022/12/13 05:54:24;;;;;;;44.08;23.98;;;;;;;-4.92;100.00;101225.53;5015981;28;20521;-79
2022/12/13 05:56:52;;;;;;;49.55;22.48;;;;;;;-4.93;100.00;101229.78;5038368;28;20053;-79
2022/12/13 05:59:21;;;;;;;44.95;23.42;;;;;;;-4.92;100.00;101220.41;5034312;28;20056;-80
2022/12/13 06:01:48;;;;;;;40.55;21.98;;;;;;;-4.93;100.00;101228.91;5039157;28;20059;-80
2022/12/13 06:04:16;;;;;;;46.92;22.10;;;;;;;-4.95;100.00;101220.19;4997074;28;20085;-79
2022/12/13 06:06:50;;;;;;;43.63;22.20;;;;;;;-4.95;100.00;101230.47;5042829;28;20409;-79
2022/12/13 06:09:18;;;;;;;44.97;22.58;;;;;;;-4.96;100.00;101223.53;5050268;28;20060;-80
2022/12/13 06:11:48;;;;;;;42.80;21.90;;;;;;;-4.95;100.00;101225.34;5031314;28;20528;-78
2022/12/13 06:14:15;;;;;;;42.75;23.00;;;;;;;-4.94;100.00;101229.69;5057939;28;20060;-80
2022/12/13 06:16:52;;;;;;;43.47;23.08;;;;;;;-4.96;100.00;101223.53;5056367;28;20055;-80
2022/12/13 06:19:21;;;;;;;43.28;21.88;;;;;;;-4.97;100.00;101221.72;5048850;28;20056;-79
2022/12/13 06:21:50;;;;;;;47.03;24.63;;;;;;;-4.98;100.00;101220.84;5031481;28;20055;-79
2022/12/13 06:24:19;;;;;;;46.80;22.90;;;;;;;-4.98;100.00;101214.81;5073464;28;20063;-80
2022/12/13 06:26:48;;;;;;;42.15;22.90;;;;;;;-4.98;100.00;101218.28;5059561;28;20045;-79
2022/12/13 06:29:17;;;;;;;47.15;23.45;;;;;;;-4.99;100.00;101216.50;5054773;28;20048;-79
2022/12/13 06:31:56;;;;;;;43.97;22.20;;;;;;;-4.99;100.00;101220.72;5072609;28;20059;-80
2022/12/13 06:34:34;;;;;;;41.95;23.85;;;;;;;-5.00;100.00;101216.41;5074074;28;20055;-79
2022/12/13 06:37:06;;;;;;;49.85;24.73;;;;;;;-5.01;100.00;101217.16;5059450;28;20064;-79
2022/12/13 06:39:34;;;;;;;44.80;22.20;;;;;;;-5.02;100.00;101217.97;5052792;28;20415;-79
2022/12/13 06:42:04;;;;;;;53.80;24.52;;;;;;;-5.03;100.00;101214.47;5035359;28;20364;-80
2022/12/13 06:44:35;;;;;;;47.33;23.67;;;;;;;-5.02;100.00;101221.41;5055094;28;20059;-79
2022/12/13 06:47:03;;;;;;;45.17;21.92;;;;;;;-5.01;100.00;101222.31;5059505;28;20091;-78
2022/12/13 06:49:41;;;;;;;42.50;23.30;;;;;;;-5.01;100.00;101224.88;5050869;28;20037;-78
2022/12/13 06:52:12;;;;;;;42.60;22.80;;;;;;;-5.01;100.00;101224.88;5031737;28;20037;-78
2022/12/13 06:54:44;;;;;;;43.20;21.48;;;;;;;-5.02;100.00;101230.81;5038634;28;20048;-78
2022/12/13 06:57:13;;;;;;;40.35;22.05;;;;;;;-5.03;100.00;101235.03;5032086;28;20048;-79
2022/12/13 06:59:42;;;;;;;45.40;22.55;;;;;;;-5.03;100.00;101236.72;5055477;28;20048;-79
2022/12/13 07:02:11;;;;;;;48.80;24.15;;;;;;;-5.06;100.00;101227.13;5051978;28;20056;-78
2022/12/13 07:04:53;;;;;;;44.63;22.65;;;;;;;-5.05;100.00;101235.72;5051320;28;20052;-78
2022/12/13 07:07:23;;;;;;;35.10;17.60;;;;;;;-5.05;100.00;101234.03;5003259;28;20048;-81
2022/12/13 07:09:51;;;;;;;43.03;22.52;;;;;;;-5.06;100.00;101236.53;5030342;28;20048;-82
2022/12/13 07:12:21;;;;;;;47.92;21.88;;;;;;;-5.07;100.00;101233.03;5058282;28;21523;-82
2022/12/13 07:14:48;;;;;;;47.97;24.13;;;;;;;-5.09;100.00;101235.50;5042317;28;20051;-82
2022/12/13 07:17:16;;;;;;;45.97;24.77;;;;;;;-5.11;100.00;101229.34;5072320;28;20056;-81
2022/12/13 07:20:00;;;;;;;42.97;21.80;;;;;;;-5.15;100.00;101224.78;5061300;28;20044;-82
2022/12/13 07:22:27;;;;;;;47.50;22.88;;;;;;;-5.17;100.00;101226.34;5025881;28;20056;-85
2022/12/13 07:25:02;;;;;;;43.30;22.20;;;;;;;-5.15;100.00;101226.47;5045986;28;20055;-83
2022/12/13 07:27:30;;;;;;;43.15;22.45;;;;;;;-5.16;100.00;101230.72;5039965;28;20523;-85
2022/12/13 07:29:57;;;;;;;42.97;21.90;;;;;;;-5.15;100.00;101239.31;5027204;28;20059;-84
2022/12/13 07:32:24;;;;;;;43.97;22.52;;;;;;;-5.15;100.00;101241.88;5059165;28;20048;-83
2022/12/13 07:35:49;;;;;;;45.30;22.83;;;;;;;-5.16;100.00;101243.56;5055707;28;20058;-84
2022/12/13 07:38:37;;;;;;;47.63;24.38;;;;;;;-5.15;100.00;101242.78;4985912;28;20415;-85
2022/12/13 07:41:04;;;;;;;43.53;21.90;;;;;;;-5.15;100.00;101245.34;5031925;28;20080;-83
2022/12/13 07:43:33;;;;;;;40.50;22.88;;;;;;;-5.14;100.00;101246.22;5006355;28;20065;-85
2022/12/13 07:46:04;;;;;;;38.85;22.20;;;;;;;-5.12;100.00;101254.97;5013364;28;20495;-84
2022/12/13 07:48:32;;;;;;;41.42;22.63;;;;;;;-5.12;100.00;101258.41;5016797;28;20076;-85
2022/12/13 07:51:02;;;;;;;45.45;22.13;;;;;;;-5.11;100.00;101260.19;5019808;28;20029;-85
2022/12/13 07:53:30;;;;;;;45.42;22.10;;;;;;;-5.09;100.00;101258.63;5017264;28;20949;-85
2022/12/13 07:56:04;;;;;;;47.92;22.50;;;;;;;-5.08;100.00;101256.97;5028344;28;20540;-84
2022/12/13 07:58:32;;;;;;;40.03;21.63;;;;;;;-5.08;100.00;101259.53;5059428;28;20076;-85
2022/12/13 08:01:07;;;;;;;47.53;22.23;;;;;;;-5.07;100.00;101265.56;5033451;28;20055;-83
2022/12/13 08:03:35;;;;;;;40.03;21.75;;;;;;;-5.05;100.00;101264.88;5040062;28;20049;-84
2022/12/13 08:06:08;;;;;;;44.40;24.17;;;;;;;-5.03;100.00;101277.84;4998265;28;20045;-84
2022/12/13 08:08:36;;;;;;;40.85;22.20;;;;;;;-5.00;100.00;101275.50;5018549;28;20959;-85
2022/12/13 08:11:07;;;;;;;42.60;21.38;;;;;;;-4.97;100.00;101275.72;5033279;28;20057;-85
2022/12/13 08:13:35;;;;;;;41.97;22.98;;;;;;;-4.95;100.00;101274.19;5052548;28;20056;-80
2022/12/13 08:16:06;;;;;;;40.78;21.60;;;;;;;-4.94;100.00;101275.94;5038934;28;20413;-81
2022/12/13 08:18:56;;;;;;;46.55;23.77;;;;;;;-4.91;100.00;101271.03;5052817;28;20600;-80
2022/12/13 08:21:40;;;;;;;42.17;24.10;;;;;;;-4.90;100.00;101265.09;5036075;28;20049;-80
2022/12/13 08:24:29;;;;;;;46.58;23.17;;;;;;;-4.87;100.00;101275.63;5020398;28;21555;-84
2022/12/13 08:26:59;;;;;;;43.00;22.52;;;;;;;-4.84;100.00;101275.81;5037825;28;20063;-80
2022/12/13 08:29:33;;;;;;;44.15;24.65;;;;;;;-4.82;100.00;101269.13;5050814;28;20049;-80
2022/12/13 08:32:06;;;;;;;40.58;23.23;;;;;;;-4.78;100.00;101268.56;5028222;28;20037;-79
2022/12/13 08:34:33;;;;;;;51.42;24.40;;;;;;;-4.73;100.00;101277.47;5025623;28;20069;-81
2022/12/13 08:37:02;;;;;;;45.33;23.58;;;;;;;-4.72;100.00;101271.56;5029470;28;20051;-80
2022/12/13 08:39:33;;;;;;;47.93;24.00;;;;;;;-4.67;100.00;101276.13;4998679;28;20045;-80
2022/12/13 08:42:06;;;;;;;37.95;23.08;;;;;;;-4.64;100.00;101271.22;5055088;28;20044;-80
2022/12/13 08:44:48;;;;;;;42.65;22.88;;;;;;;-4.61;100.00;101277.47;5021306;28;20054;-80
2022/12/13 08:47:18;;;;;;;47.78;25.27;;;;;;;-4.57;100.00;101276.03;5023547;28;20056;-78
2022/12/13 08:49:52;;;;;;;48.70;24.13;;;;;;;-4.55;100.00;101280.47;5038327;28;20508;-79
2022/12/13 08:52:29;;;;;;;42.70;22.73;;;;;;;-4.52;100.00;101285.84;4995177;28;20560;-79
2022/12/13 08:54:56;;;;;;;50.35;24.58;;;;;;;-4.48;100.00;101281.78;5032949;28;20048;-79
2022/12/13 08:57:25;;;;;;;48.05;24.20;;;;;;;-4.45;100.00;101286.28;4988997;28;20049;-78
2022/12/13 08:59:54;;;;;;;51.55;26.17;;;;;;;-4.40;100.00;101290.06;5053912;28;20041;-80
2022/12/13 09:02:21;;;;;;;54.97;26.58;;;;;;;-4.36;100.00;101292.94;5002132;28;20038;-80
2022/12/13 09:04:49;;;;;;;47.88;25.88;;;;;;;-4.28;100.00;101296.06;5014143;28;20045;-80
2022/12/13 09:07:16;;;;;;;175.90;33.63;;;;;;;-4.21;100.00;101294.81;5024520;28;20061;-79
2022/12/13 09:09:47;;;;;;;56.55;28.73;;;;;;;-4.16;100.00;101296.94;5004292;28;20049;-79
2022/12/13 09:12:21;;;;;;;310.85;43.17;;;;;;;-4.12;100.00;101292.84;5024843;28;20040;-81
2022/12/13 09:14:57;;;;;;;56.97;28.52;;;;;;;-4.05;100.00;101300.22;5021237;28;20049;-80
2022/12/13 09:17:32;;;;;;;60.30;27.42;;;;;;;-4.03;100.00;101298.66;5028303;28;20051;-80
2022/12/13 09:20:06;;;;;;;127.25;31.17;;;;;;;-4.01;100.00;101294.50;5020572;28;20505;-80
2022/12/13 09:22:37;;;;;;;50.95;28.10;;;;;;;-3.99;100.00;101295.53;5041142;28;20041;-80
2022/12/13 09:25:11;;;;;;;53.28;27.27;;;;;;;-3.95;100.00;101292.38;5015488;28;20053;-81
2022/12/13 09:27:50;;;;;;;69.70;30.13;;;;;;;-3.92;100.00;101295.13;4995888;28;20041;-79
2022/12/13 09:30:17;;;;;;;58.15;27.67;;;;;;;-3.86;100.00;101289.50;5019436;28;20063;-78
2022/12/13 09:32:48;;;;;;;58.05;29.65;;;;;;;-3.83;100.00;101287.16;4994180;28;20071;-79
2022/12/13 09:35:16;;;;;;;54.15;28.35;;;;;;;-3.81;100.00;101282.09;5026376;28;20048;-81
2022/12/13 09:37:44;;;;;;;95.32;33.58;;;;;;;-3.78;100.00;101283.22;5044561;28;20045;-79
2022/12/13 09:40:26;;;;;;;60.80;30.60;;;;;;;-3.75;100.00;101285.09;5018070;28;20037;-80
2022/12/13 09:42:56;;;;;;;72.50;33.75;;;;;;;-3.71;100.00;101287.06;5006823;28;20049;-81
2022/12/13 09:45:44;;;;;;;64.90;29.80;;;;;;;-3.65;100.00;101287.47;5028682;28;20053;-81
2022/12/13 09:48:20;;;;;;;62.95;29.38;;;;;;;-3.60;100.00;101280.09;5049467;28;20041;-81
2022/12/13 09:50:50;;;;;;;54.78;29.95;;;;;;;-3.57;100.00;101276.03;5027481;28;20051;-80
2022/12/13 09:53:38;;;;;;;53.75;29.08;;;;;;;-3.53;100.00;101284.84;4998119;28;20060;-80
2022/12/13 09:56:11;;;;;;;;;;;;;;;-3.53;100.00;101283.16;5021321;28;20053;-79
2022/12/13 09:58:38;;;;;;;56.47;30.33;;;;;;;-3.49;100.00;101278.22;5009598;28;19924;-81
2022/12/13 10:01:06;;;;;;;60.10;29.27;;;;;;;-3.46;100.00;101275.84;5023604;28;20049;-81
2022/12/13 10:03:34;;;;;;;57.63;28.90;;;;;;;-3.41;100.00;101282.19;5026769;28;20289;-79
2022/12/13 10:06:14;;;;;;;59.72;30.13;;;;;;;-3.37;100.00;101276.44;5015417;28;20067;-81
2022/12/13 10:09:01;;;;;;;61.80;29.65;;;;;;;-3.31;100.00;101274.25;5048744;28;20048;-78
2022/12/13 10:11:29;;;;;;;54.58;28.90;;;;;;;-3.23;100.00;101273.09;5013824;28;20434;-82
2022/12/13 10:14:07;;;;;;;53.38;29.48;;;;;;;-3.17;100.00;101273.50;5012582;28;20041;-81
2022/12/13 10:16:37;;;;;;;59.58;29.75;;;;;;;-3.08;100.00;101261.97;5049358;28;20038;-81
2022/12/13 10:19:17;;;;;;;57.10;29.10;;;;;;;-3.02;100.00;101257.25;5048690;28;20041;-82
2022/12/13 10:21:58;;;;;;;49.08;26.02;;;;;;;-2.93;100.00;101260.38;5038487;28;20052;-79
2022/12/13 10:24:51;;;;;;;51.13;28.40;;;;;;;-2.83;100.00;101262.78;5033447;28;20045;-79
2022/12/13 10:27:26;;;;;;;57.72;27.23;;;;;;;-2.74;100.00;101259.91;5047823;28;20494;-79
2022/12/13 10:30:11;;;;;;;48.70;27.38;;;;;;;-2.69;100.00;101252.44;5037340;28;20048;-80
2022/12/13 10:32:48;;;;;;;45.70;27.05;;;;;;;-2.63;100.00;101247.66;5060719;28;20052;-80
2022/12/13 10:35:37;;;;;;;46.80;26.42;;;;;;;-2.58;100.00;101241.09;5044302;28;20040;-82
2022/12/13 10:38:07;;;;;;;47.72;26.88;;;;;;;-2.52;100.00;101236.31;5035976;28;20053;-80
2022/12/13 10:40:39;;;;;;;50.83;25.63;;;;;;;-2.45;100.00;101238.50;5033679;28;20049;-80
2022/12/13 10:43:19;;;;;;;47.28;25.65;;;;;;;-2.39;100.00;101233.69;5061856;28;20041;-78
2022/12/13 10:45:58;;;;;;;;;;;;;;;-2.35;100.00;101232.19;5046921;28;20045;-79
2022/12/13 10:48:32;;;;;;;47.75;24.42;;;;;;;-2.31;100.00;101226.41;5045591;28;19924;-80
2022/12/13 10:51:11;;;;;;;44.13;24.00;;;;;;;-2.25;100.00;101225.91;5049082;28;20049;-81
2022/12/13 10:53:52;;;;;;;41.85;24.17;;;;;;;-2.20;100.00;101217.63;5009739;28;21128;-80
2022/12/13 10:56:33;;;;;;;43.70;23.67;;;;;;;-2.14;100.00;101219.69;5029020;28;20533;-79
2022/12/13 10:59:36;;;;;;;41.67;24.00;;;;;;;-2.11;100.00;101209.56;5058933;28;20387;-82
2022/12/13 11:02:36;;;;;;;41.33;23.35;;;;;;;-2.04;100.00;101206.56;5053569;28;20502;-81
2022/12/13 11:05:27;;;;;;;40.33;22.98;;;;;;;-1.98;100.00;101201.75;5053373;28;20103;-79
2022/12/13 11:08:10;;;;;;;44.83;24.20;;;;;;;-1.92;100.00;101195.16;5043366;28;20048;-79
2022/12/13 11:10:37;;;;;;;38.03;22.25;;;;;;;-1.89;100.00;101195.31;5043832;28;20056;-80
2022/12/13 11:13:06;;;;;;;39.95;22.92;;;;;;;-1.86;100.00;101185.19;5029911;28;20049;-81
2022/12/13 11:15:37;;;;;;;40.63;23.13;;;;;;;-1.84;100.00;101179.31;5046816;28;20052;-82
2022/12/13 11:18:17;;;;;;;40.45;21.45;;;;;;;-1.79;100.00;101188.22;5053615;28;20048;-81
2022/12/13 11:21:00;;;;;;;39.88;21.95;;;;;;;-1.77;100.00;101189.19;5051963;28;20437;-80
2022/12/13 11:23:38;;;;;;;43.45;23.58;;;;;;;-1.70;100.00;101192.13;5043691;28;20065;-80
2022/12/13 11:26:16;;;;;;;41.72;22.95;;;;;;;-1.66;100.00;101189.84;5055119;28;20056;-79
2022/12/13 11:28:57;;;;;;;41.03;24.90;;;;;;;-1.61;100.00;101180.66;5043377;28;20048;-81
2022/12/13 11:31:33;;;;;;;42.53;25.35;;;;;;;-1.54;100.00;101181.00;5022469;28;20510;-79
2022/12/13 11:34:29;;;;;;;38.92;22.95;;;;;;;-1.50;100.00;101168.31;5045269;28;20052;-79
2022/12/13 11:37:06;;;;;;;41.35;22.30;;;;;;;-1.48;100.00;101168.41;5071628;28;20049;-79
2022/12/13 11:39:39;;;;;;;42.55;24.30;;;;;;;-1.42;100.00;101164.50;5046760;28;23056;-79